KPHD/PHD METAR and TAF weather

Enter ICAO airport designator
Station Type Date Time Source
KPHD METAR 2021/09/23 23:53 UTC NOAA

KPHD 232353Z AUTO VRB04KT 10SM BKN039 BKN050 OVC085 13/08 A2995 RMK AO2 SLP142 T01280078 10139 20128 51017


Station Type Date Time Source
KPHD Decoded METAR 2021/09/23 23:53 UTC NOAA

NEW PHILADELPHIA CLEVER FLD, OH, United States (KPHD) 40-28N 81-25W 272M
Sep 23, 2021 - 07:53 PM EDT / 2021.09.23 2353 UTC
Wind: Variable at 5 MPH (4 KT):0
Visibility: 10 mile(s):0
Sky conditions: overcast
Temperature: 55.0 F (12.8 C)
Dew Point: 46.0 F (7.8 C)
Relative Humidity: 71%
Pressure (altimeter): 29.95 in. Hg (1014 hPa)
Pressure tendency: 0.05 inches (1.7 hPa) higher than three hours ago
ob: KPHD 232353Z AUTO VRB04KT 10SM BKN039 BKN050 OVC085 13/08 A2995 RMK AO2 SLP142 T01280078 10139 20128 51017
cycle: 0

Station Type Date Time Source
KPHD TAF UTC NOAA

Error!

Example: see airport list